createdAt,value
2022-12-03T16:24:33.534Z,81.96
2022-12-03T16:32:17.823Z,81.96
2022-12-03T16:33:10.908Z,81.96
2022-12-03T16:49:39.732Z,82.17
2022-12-03T16:50:37.678Z,81.96
2022-12-03T16:51:37.111Z,82.90
2022-12-03T16:52:37.652Z,83.22
2022-12-03T16:53:37.652Z,81.96
2022-12-03T16:54:37.937Z,81.76
2022-12-03T16:55:42.728Z,81.65
2022-12-03T16:57:13.164Z,81.96
2022-12-03T16:57:38.668Z,82.07
2022-12-03T16:58:38.677Z,81.86
2022-12-03T16:59:37.646Z,81.76
2022-12-03T17:00:39.870Z,81.79
2022-12-03T17:01:37.691Z,82.10
2022-12-03T17:02:38.736Z,82.21
2022-12-03T17:03:39.576Z,82.84
2022-12-03T17:21:53.360Z,82.10
2022-12-03T17:21:58.363Z,82.00
2022-12-03T17:22:58.399Z,82.00
2022-12-03T17:24:02.539Z,82.10
2022-12-03T17:25:00.003Z,82.10
2022-12-03T17:31:41.591Z,82.00
2022-12-03T17:33:10.413Z,82.80
2022-12-03T17:42:24.492Z,82.17
2022-12-03T17:43:23.867Z,82.38
2022-12-03T17:44:31.280Z,81.96
2022-12-03T17:46:55.269Z,82.07
2022-12-03T17:53:29.737Z,81.86
2022-12-03T17:54:49.356Z,81.76
2022-12-03T17:55:45.269Z,82.00
2022-12-03T17:56:31.171Z,81.76
2022-12-03T17:57:31.206Z,81.65
2022-12-03T17:58:33.927Z,81.59
2022-12-03T17:59:31.570Z,81.45
2022-12-03T18:03:44.262Z,81.79
2022-12-03T18:03:49.333Z,82.10
2022-12-03T18:04:52.305Z,81.79
2022-12-03T18:05:49.256Z,81.48
2022-12-03T18:06:59.006Z,81.90
2022-12-03T18:07:50.238Z,81.69
2022-12-03T18:08:50.202Z,81.48
2022-12-03T18:09:50.454Z,81.59
2022-12-03T18:10:50.195Z,81.65
2022-12-03T18:11:50.774Z,84.26
2022-12-03T18:12:59.911Z,82.70
2022-12-03T18:25:20.882Z,82.90
2022-12-03T18:25:25.887Z,82.73
2022-12-03T18:26:25.841Z,82.17
2022-12-03T18:27:25.835Z,81.86
2022-12-03T18:28:27.578Z,82.00
2022-12-03T18:29:26.674Z,82.00
2022-12-03T18:30:27.698Z,82.31
2022-12-03T18:31:27.372Z,82.53
2022-12-03T18:32:29.312Z,82.42
2022-12-03T18:33:26.671Z,82.21
2022-12-03T18:34:26.758Z,82.21
2022-12-03T18:35:29.184Z,82.28
2022-12-03T18:36:25.764Z,82.48
2022-12-03T18:37:26.679Z,82.59
2022-12-03T18:38:26.681Z,82.28
2022-12-03T18:39:26.935Z,81.96
2022-12-03T18:40:30.263Z,82.17
2022-12-03T18:41:27.693Z,83.01
2022-12-03T18:42:26.672Z,82.70
2022-12-03T18:43:26.858Z,82.00
2022-12-03T18:44:30.614Z,81.90
2022-12-03T18:45:25.656Z,82.21
2022-12-03T18:47:25.712Z,82.42
2022-12-03T18:48:27.181Z,82.73
2022-12-03T18:49:26.179Z,82.10
2022-12-03T18:50:26.164Z,83.47
2022-12-03T18:51:25.625Z,82.00
2022-12-03T18:52:27.179Z,83.36
2022-12-03T18:53:26.182Z,82.21
2022-12-03T18:54:54.414Z,82.21
2022-12-03T18:55:26.776Z,82.53
2022-12-03T18:56:25.530Z,82.31
2022-12-03T18:57:26.181Z,82.31
2022-12-03T18:58:27.204Z,84.50
2022-12-03T18:59:25.550Z,85.44
2022-12-03T19:00:26.201Z,82.70
2022-12-03T19:01:26.341Z,82.07
2022-12-03T19:02:54.208Z,82.00
2022-12-03T19:03:27.241Z,82.42
2022-12-03T19:04:26.182Z,82.53
2022-12-03T19:05:25.458Z,82.42
2022-12-03T19:06:25.457Z,82.42
2022-12-03T19:07:29.268Z,82.53
2022-12-03T19:08:27.201Z,81.69
2022-12-03T19:09:26.181Z,82.00
2022-12-03T19:10:26.173Z,83.04
2022-12-03T19:11:26.217Z,82.21
2022-12-03T19:12:25.390Z,83.57
2022-12-03T19:13:27.202Z,82.73
2022-12-03T19:14:28.783Z,82.63
2022-12-03T19:15:27.248Z,82.38
2022-12-03T19:16:26.213Z,82.80
2022-12-03T19:17:27.909Z,82.28
2022-12-03T19:18:26.171Z,81.96
2022-12-03T19:19:26.413Z,81.79
2022-12-03T19:20:27.219Z,82.07
2022-12-03T19:21:30.688Z,81.76
2022-12-03T19:22:26.197Z,82.63
2022-12-03T19:23:26.202Z,81.96
2022-12-03T19:24:28.772Z,82.00
2022-12-03T19:25:30.232Z,82.53
2022-12-03T19:26:28.189Z,82.21
2022-12-03T19:27:29.556Z,81.90
2022-12-03T19:28:26.193Z,82.21
2022-12-03T19:32:47.428Z,82.42
2022-12-03T19:32:52.463Z,82.10
2022-12-03T19:33:54.203Z,82.73
2022-12-03T19:34:53.193Z,82.63
2022-12-03T19:35:53.840Z,82.53
2022-12-03T19:36:54.202Z,82.42
2022-12-03T19:37:53.197Z,82.21
2022-12-03T19:38:57.099Z,82.31
2022-12-03T19:39:56.712Z,82.21
2022-12-03T19:40:56.359Z,82.42
2022-12-03T19:41:52.398Z,82.21
2022-12-03T19:42:53.177Z,84.19
2022-12-03T19:43:53.183Z,83.04
2022-12-03T19:44:53.181Z,82.73
2022-12-03T19:45:53.257Z,82.42
2022-12-03T19:46:53.193Z,82.63
2022-12-03T19:47:54.220Z,82.84
2022-12-03T19:48:56.918Z,82.73
2022-12-03T19:49:54.410Z,82.42
2022-12-03T19:51:19.433Z,82.31
2022-12-03T19:51:52.260Z,83.57
2022-12-03T19:52:53.172Z,83.04
2022-12-03T19:53:54.220Z,82.63
2022-12-03T19:54:53.195Z,83.36
2022-12-03T19:55:53.202Z,82.63
2022-12-03T19:56:53.190Z,82.53
2022-12-03T19:57:53.909Z,83.57
2022-12-03T19:58:55.280Z,82.73
2022-12-03T19:59:53.992Z,83.98
2022-12-03T20:00:59.699Z,83.04
2022-12-03T20:01:53.705Z,83.15
2022-12-03T20:02:52.745Z,82.42
2022-12-03T20:03:52.696Z,82.63
2022-12-03T20:04:52.678Z,82.63
2022-12-03T20:05:52.712Z,82.42
2022-12-03T20:06:52.699Z,83.47
2022-12-03T20:07:53.755Z,82.42
2022-12-03T20:08:53.714Z,82.42
2022-12-03T20:09:54.792Z,82.21
2022-12-03T20:10:52.677Z,82.53
2022-12-03T20:11:52.686Z,82.73
2022-12-03T20:12:58.427Z,82.73
2022-12-03T20:13:54.245Z,82.84
2022-12-03T20:14:53.704Z,82.42
2022-12-03T20:15:54.073Z,82.94
2022-12-03T20:16:52.846Z,82.84
2022-12-03T20:17:55.546Z,82.63
2022-12-03T20:18:52.678Z,82.53
2022-12-03T20:19:54.261Z,82.73
2022-12-03T20:20:55.213Z,82.84
2022-12-03T20:21:55.277Z,82.73
2022-12-03T20:22:52.686Z,82.73
2022-12-03T20:23:52.705Z,82.84
2022-12-03T20:24:53.735Z,82.84
2022-12-03T20:25:53.711Z,83.98
2022-12-03T20:26:53.706Z,85.76
2022-12-03T20:28:40.243Z,85.03
2022-12-03T20:28:59.173Z,83.36
2022-12-03T20:29:53.182Z,82.94
2022-12-03T20:30:52.711Z,83.04
2022-12-03T20:31:53.819Z,82.73
2022-12-03T20:32:52.702Z,82.73
2022-12-03T20:33:52.709Z,82.94
2022-12-03T20:35:03.873Z,82.84
2022-12-03T20:35:53.725Z,82.94
2022-12-03T20:36:53.732Z,82.94
2022-12-03T20:38:11.780Z,83.04
2022-12-03T20:38:52.698Z,82.84
2022-12-03T20:39:54.734Z,83.25
2022-12-03T20:40:52.705Z,83.25
2022-12-03T20:41:52.209Z,83.25
2022-12-03T20:42:51.765Z,83.29
2022-12-03T20:44:40.757Z,83.47
2022-12-03T21:03:13.322Z,83.36
2022-12-03T21:03:18.327Z,83.61
2022-12-03T21:04:22.713Z,84.23
2022-12-03T21:05:19.194Z,83.71
2022-12-03T21:06:19.208Z,83.92
2022-12-03T21:07:23.285Z,83.81
2022-12-03T21:08:39.650Z,83.50
2022-12-03T21:09:23.730Z,83.50
2022-12-03T21:10:20.292Z,83.40
2022-12-03T21:11:19.854Z,83.61
2022-12-03T21:12:19.974Z,83.40
2022-12-03T21:13:19.198Z,83.29
2022-12-03T21:14:20.223Z,83.40
2022-12-03T21:15:23.802Z,83.50
2022-12-03T21:16:18.796Z,84.55
2022-12-03T21:17:19.780Z,84.12
2022-12-03T21:18:18.710Z,84.65
2022-12-03T21:19:18.846Z,86.21
2022-12-03T21:20:21.140Z,84.19
2022-12-03T21:21:19.731Z,85.34
2022-12-03T21:22:18.750Z,83.57
2022-12-03T21:23:47.363Z,83.67
2022-12-03T21:24:18.118Z,83.57
2022-12-03T21:25:19.710Z,84.40
2022-12-03T21:26:18.776Z,84.30
2022-12-03T21:27:21.831Z,83.98
2022-12-03T21:28:46.283Z,83.47
2022-12-03T21:30:18.084Z,83.36
2022-12-03T21:30:23.439Z,83.04
2022-12-03T21:31:24.822Z,83.15
2022-12-03T21:32:23.963Z,83.29
2022-12-03T21:33:24.273Z,83.61
2022-12-03T21:34:23.714Z,83.40
2022-12-03T21:35:24.724Z,83.40
2022-12-03T21:36:23.715Z,83.61
2022-12-03T21:37:25.577Z,83.50
2022-12-03T21:38:23.268Z,83.50
2022-12-03T21:39:26.797Z,83.50
2022-12-03T21:40:24.735Z,83.92
2022-12-03T21:41:23.708Z,83.71
2022-12-03T21:42:36.595Z,83.92
2022-12-03T21:43:25.517Z,83.81
2022-12-03T21:44:23.688Z,83.50
2022-12-03T21:45:23.731Z,83.61
2022-12-03T21:47:12.689Z,83.92
2022-12-03T21:47:22.968Z,83.71
2022-12-03T21:48:22.911Z,84.12
2022-12-03T21:49:23.696Z,83.92
2022-12-03T21:50:23.714Z,84.44
2022-12-03T21:51:24.716Z,84.02
2022-12-03T21:57:32.992Z,84.02
2022-12-03T21:57:38.717Z,84.23
2022-12-03T21:58:39.199Z,84.34
2022-12-03T21:59:40.958Z,84.34
2022-12-03T22:00:39.212Z,84.34
2022-12-03T22:01:44.046Z,84.86
2022-12-03T22:02:39.296Z,84.44
2022-12-03T22:03:41.915Z,84.65
2022-12-03T22:04:45.110Z,84.65
2022-12-03T22:05:42.300Z,84.34
2022-12-03T22:13:55.161Z,84.23
2022-12-03T22:14:06.741Z,84.44
2022-12-03T22:20:15.889Z,84.65
2022-12-03T22:21:16.912Z,84.65
2022-12-03T22:22:17.701Z,84.23
2022-12-03T22:23:15.345Z,85.49
2022-12-03T22:24:15.310Z,86.63
2022-12-03T22:25:15.305Z,85.49
2022-12-03T22:26:19.365Z,84.55
2022-12-03T22:27:15.289Z,85.69
2022-12-03T22:28:18.720Z,84.75
2022-12-03T22:29:15.890Z,85.49
2022-12-03T22:30:20.475Z,84.75
2022-12-03T22:31:15.941Z,84.96
2022-12-03T22:32:15.870Z,84.75
2022-12-03T22:33:15.889Z,84.65
2022-12-03T22:34:15.201Z,85.49
2022-12-03T22:35:16.943Z,85.17
2022-12-03T22:36:20.597Z,84.86
2022-12-03T22:37:15.870Z,84.86
2022-12-03T22:38:17.665Z,85.06
2022-12-03T22:39:17.668Z,84.75
2022-12-03T22:40:19.369Z,85.27
2022-12-03T22:41:17.670Z,85.06
2022-12-03T22:42:54.905Z,84.86
2022-12-03T22:43:54.820Z,84.96
2022-12-03T23:01:01.292Z,85.80
2022-12-03T23:01:07.350Z,85.27
2022-12-03T23:02:07.867Z,85.69
2022-12-03T23:03:05.966Z,85.17
2022-12-03T23:04:05.952Z,84.75
2022-12-03T23:05:15.631Z,84.86
2022-12-03T23:06:07.676Z,85.06
2022-12-03T23:07:05.863Z,85.69
2022-12-03T23:08:08.425Z,85.49
2022-12-03T23:09:08.412Z,85.17
2022-12-03T23:10:05.959Z,85.27
2022-12-03T23:11:07.457Z,85.17
2022-12-03T23:12:06.903Z,86.74
2022-12-03T23:13:07.678Z,87.47
2022-12-03T23:14:06.918Z,85.59
2022-12-03T23:15:10.656Z,87.57
2022-12-03T23:16:05.982Z,85.27
2022-12-03T23:17:08.623Z,84.96
2022-12-03T23:18:05.874Z,84.96
2022-12-03T23:21:14.643Z,85.17
2022-12-03T23:21:23.914Z,84.75
2022-12-03T23:22:23.102Z,85.06
2022-12-03T23:23:20.385Z,84.96
2022-12-03T23:24:21.412Z,84.75
2022-12-03T23:25:20.451Z,84.96
2022-12-03T23:26:20.403Z,85.00
2022-12-03T23:27:21.169Z,85.21
2022-12-03T23:28:22.165Z,85.38
2022-12-03T23:29:53.309Z,85.38
2022-12-03T23:47:27.419Z,85.90
2022-12-03T23:49:38.868Z,85.21
2022-12-03T23:49:43.910Z,85.63
2022-12-03T23:50:45.591Z,85.31
2022-12-03T23:51:51.414Z,85.21
2022-12-03T23:52:45.109Z,85.42
2022-12-03T23:53:44.466Z,85.42
2022-12-03T23:54:45.070Z,85.63
2022-12-03T23:55:47.473Z,85.73
2022-12-03T23:56:45.395Z,86.05
2022-12-03T23:57:45.390Z,85.42
2022-12-03T23:58:43.780Z,85.73
2022-12-03T23:59:47.869Z,85.42
